createdAt,value
2022-10-05T00:00:28.000Z,99.90
2022-10-05T00:02:59.702Z,99.90
2022-10-05T00:05:33.235Z,99.90
2022-10-05T00:08:11.564Z,99.90
2022-10-05T00:10:44.756Z,99.90
2022-10-05T00:13:26.833Z,99.90
2022-10-05T00:16:19.269Z,99.90
2022-10-05T00:18:53.127Z,99.90
2022-10-05T00:21:26.245Z,99.90
2022-10-05T00:23:58.209Z,99.90
2022-10-05T00:26:33.170Z,99.90
2022-10-05T00:29:12.065Z,99.90
2022-10-05T00:31:43.885Z,99.90
2022-10-05T00:34:16.348Z,99.90
2022-10-05T00:36:48.487Z,99.90
2022-10-05T00:39:20.612Z,99.90
2022-10-05T00:42:03.788Z,99.90
2022-10-05T00:44:38.584Z,99.90
2022-10-05T00:47:13.498Z,99.90
2022-10-05T00:49:54.317Z,99.90
2022-10-05T00:52:35.057Z,99.90
2022-10-05T00:55:15.587Z,99.90
2022-10-05T00:58:06.878Z,99.90
2022-10-05T01:00:44.614Z,99.90
2022-10-05T01:03:20.820Z,99.90
2022-10-05T01:06:01.792Z,99.90
2022-10-05T01:08:39.803Z,99.90
2022-10-05T01:11:20.517Z,99.90
2022-10-05T01:13:58.214Z,99.90
2022-10-05T01:16:41.946Z,99.90
2022-10-05T01:19:36.760Z,99.90
2022-10-05T01:22:17.581Z,99.90
2022-10-05T01:25:09.533Z,99.90
2022-10-05T01:27:53.224Z,99.90
2022-10-05T01:30:24.967Z,99.90
2022-10-05T01:33:02.075Z,99.90
2022-10-05T01:35:43.536Z,99.90
2022-10-05T01:38:15.250Z,99.90
2022-10-05T01:40:46.935Z,99.90
2022-10-05T01:43:25.164Z,99.90
2022-10-05T01:46:15.119Z,99.90
2022-10-05T01:48:52.840Z,99.90
2022-10-05T01:51:37.976Z,99.90
2022-10-05T01:54:15.915Z,99.90
2022-10-05T01:56:57.876Z,99.90
2022-10-05T01:59:32.336Z,99.90
2022-10-05T02:02:07.684Z,99.90
2022-10-05T02:05:01.798Z,99.90
2022-10-05T02:07:36.827Z,99.90
2022-10-05T02:10:31.467Z,99.90
2022-10-05T02:13:26.504Z,99.90
2022-10-05T02:16:00.505Z,99.90
2022-10-05T02:18:40.755Z,99.90
2022-10-05T02:21:12.928Z,99.90
2022-10-05T02:23:46.378Z,99.90
2022-10-05T02:26:19.066Z,99.90
2022-10-05T02:28:58.808Z,99.90
2022-10-05T02:31:43.280Z,99.90
2022-10-05T02:34:50.618Z,99.90
2022-10-05T02:37:28.319Z,99.90
2022-10-05T02:40:00.020Z,99.90
2022-10-05T02:42:44.078Z,99.90
2022-10-05T02:45:34.254Z,99.90
2022-10-05T02:48:16.833Z,99.90
2022-10-05T02:50:51.509Z,99.90
2022-10-05T02:53:23.185Z,99.90
2022-10-05T02:55:59.723Z,99.90
2022-10-05T02:58:37.093Z,99.90
2022-10-05T03:01:16.804Z,99.90
2022-10-05T03:04:04.898Z,99.90
2022-10-05T03:06:40.721Z,99.90
2022-10-05T03:09:14.041Z,99.90
2022-10-05T03:11:51.387Z,99.90
2022-10-05T03:14:31.901Z,99.90
2022-10-05T03:17:09.233Z,99.90
2022-10-05T03:20:00.595Z,99.90
2022-10-05T03:22:50.700Z,99.90
2022-10-05T03:25:22.392Z,99.90
2022-10-05T03:28:00.286Z,99.90
2022-10-05T03:30:37.100Z,99.90
2022-10-05T03:33:20.722Z,99.90
2022-10-05T03:36:05.691Z,99.90
2022-10-05T03:39:02.055Z,99.90
2022-10-05T03:41:40.362Z,99.90
2022-10-05T03:44:28.488Z,99.90
2022-10-05T03:47:23.487Z,99.90
2022-10-05T03:50:13.995Z,99.90
2022-10-05T03:52:49.153Z,99.90
2022-10-05T03:55:26.612Z,99.90
2022-10-05T03:58:03.617Z,99.90
2022-10-05T04:00:36.741Z,99.90
2022-10-05T04:03:15.661Z,99.90
2022-10-05T04:06:00.974Z,99.90
2022-10-05T04:08:37.675Z,99.90
2022-10-05T04:11:10.896Z,99.90
2022-10-05T04:13:45.959Z,99.90
2022-10-05T04:16:20.836Z,99.90
2022-10-05T04:19:11.023Z,99.90
2022-10-05T04:21:48.898Z,99.90
2022-10-05T04:24:23.449Z,99.90
2022-10-05T04:27:03.547Z,99.90
2022-10-05T04:29:43.706Z,99.90
2022-10-05T04:32:15.374Z,99.90
2022-10-05T04:34:53.437Z,99.90
2022-10-05T04:37:31.829Z,99.90
2022-10-05T04:40:06.598Z,99.90
2022-10-05T04:42:43.770Z,99.90
2022-10-05T04:45:29.536Z,99.90
2022-10-05T04:48:01.302Z,99.90
2022-10-05T04:50:38.754Z,99.90
2022-10-05T04:53:10.490Z,99.90
2022-10-05T04:55:45.315Z,99.90
2022-10-05T04:58:42.202Z,99.90
2022-10-05T05:01:17.375Z,99.90
2022-10-05T05:03:51.929Z,99.90
2022-10-05T05:06:32.916Z,99.90
2022-10-05T05:09:20.060Z,99.90
2022-10-05T05:12:11.642Z,99.90
2022-10-05T05:15:00.886Z,99.90
2022-10-05T05:17:32.587Z,99.90
2022-10-05T05:20:10.540Z,99.90
2022-10-05T05:22:42.228Z,99.90
2022-10-05T05:25:31.961Z,99.90
2022-10-05T05:28:19.295Z,99.90
2022-10-05T05:31:03.987Z,99.90
2022-10-05T05:33:42.834Z,99.90
2022-10-05T05:36:25.755Z,99.90
2022-10-05T05:39:06.576Z,99.90
2022-10-05T05:41:47.123Z,99.90
2022-10-05T05:44:18.822Z,99.90
2022-10-05T05:47:04.735Z,99.90
2022-10-05T05:49:39.703Z,99.90
2022-10-05T05:52:18.074Z,99.90
2022-10-05T05:54:53.213Z,99.90
2022-10-05T05:57:32.850Z,99.90
2022-10-05T06:00:10.913Z,99.90
2022-10-05T06:03:00.731Z,99.90
2022-10-05T06:05:38.302Z,99.90
2022-10-05T06:08:20.947Z,99.90
2022-10-05T06:10:55.516Z,99.90
2022-10-05T06:13:38.632Z,99.90
2022-10-05T06:16:31.483Z,99.90
2022-10-05T06:19:10.437Z,99.90
2022-10-05T06:21:45.048Z,99.90
2022-10-05T06:24:29.937Z,99.90
2022-10-05T06:27:13.767Z,99.90
2022-10-05T06:29:56.672Z,99.90
2022-10-05T06:32:47.300Z,99.90
2022-10-05T06:35:39.210Z,99.90
2022-10-05T06:38:23.220Z,99.90
2022-10-05T06:41:13.045Z,99.90
2022-10-05T06:43:44.775Z,99.90
2022-10-05T06:46:22.972Z,99.90
2022-10-05T06:49:13.517Z,99.90
2022-10-05T06:51:51.295Z,99.90
2022-10-05T06:54:32.075Z,99.90
2022-10-05T06:57:03.746Z,99.90
2022-10-05T06:59:35.434Z,99.90
2022-10-05T07:02:19.467Z,99.90
2022-10-05T07:04:58.213Z,99.90
2022-10-05T07:07:39.189Z,99.90
2022-10-05T07:10:17.329Z,99.90
2022-10-05T07:12:51.834Z,99.90
2022-10-05T07:15:32.522Z,99.90
2022-10-05T07:18:10.401Z,99.90
2022-10-05T07:20:49.324Z,99.90
2022-10-05T07:23:26.583Z,99.90
2022-10-05T07:26:01.058Z,99.90
2022-10-05T07:28:55.688Z,99.90
2022-10-05T07:31:36.672Z,99.90
2022-10-05T07:34:15.024Z,99.90
2022-10-05T07:37:08.510Z,99.90
2022-10-05T07:40:01.886Z,99.90
2022-10-05T07:42:44.577Z,99.90
2022-10-05T07:45:29.322Z,99.90
2022-10-05T07:48:05.862Z,99.90
2022-10-05T07:50:41.573Z,99.90
2022-10-05T07:53:16.429Z,99.90
2022-10-05T07:55:52.538Z,99.90
2022-10-05T07:58:43.852Z,99.90
2022-10-05T08:01:22.137Z,99.90
2022-10-05T08:04:00.092Z,99.90
2022-10-05T08:06:38.278Z,99.90
2022-10-05T08:09:13.176Z,99.90
2022-10-05T08:11:53.819Z,99.90
2022-10-05T08:14:28.926Z,99.90
2022-10-05T08:17:04.020Z,99.90
2022-10-05T08:19:41.616Z,99.90
2022-10-05T08:22:19.517Z,99.90
2022-10-05T08:25:04.942Z,99.90
2022-10-05T08:27:48.046Z,99.90
2022-10-05T08:30:19.781Z,99.90
2022-10-05T08:33:11.783Z,99.90
2022-10-05T08:35:44.798Z,99.90
2022-10-05T08:38:20.410Z,99.90
2022-10-05T08:41:11.136Z,99.90
2022-10-05T08:44:04.537Z,99.90
2022-10-05T08:46:57.649Z,99.90
2022-10-05T08:49:42.172Z,99.90
2022-10-05T08:52:14.012Z,99.90
2022-10-05T08:55:00.381Z,99.90
2022-10-05T08:57:44.323Z,99.90
2022-10-05T09:00:20.166Z,99.90
2022-10-05T09:03:11.154Z,99.90
2022-10-05T09:05:45.851Z,99.90
2022-10-05T09:08:36.133Z,99.90
2022-10-05T09:11:10.951Z,99.90
2022-10-05T09:14:01.591Z,99.90
2022-10-05T09:16:54.283Z,99.90
2022-10-05T09:19:44.773Z,99.90
2022-10-05T09:22:25.572Z,99.90
2022-10-05T09:24:58.139Z,99.90
2022-10-05T09:27:36.031Z,99.90
2022-10-05T09:30:18.723Z,99.90
2022-10-05T09:33:23.650Z,99.90
2022-10-05T09:36:07.516Z,99.90
2022-10-05T09:38:47.808Z,99.90
2022-10-05T09:41:38.255Z,99.90
2022-10-05T09:44:29.148Z,99.90
2022-10-05T09:47:00.840Z,99.90
2022-10-05T09:49:32.518Z,99.90
2022-10-05T09:52:26.146Z,99.90
2022-10-05T09:55:15.382Z,99.90
2022-10-05T09:57:55.697Z,99.90
2022-10-05T10:00:45.863Z,99.90
2022-10-05T10:03:25.589Z,99.90
2022-10-05T10:06:00.102Z,99.90
2022-10-05T10:08:44.273Z,99.90
2022-10-05T10:11:15.925Z,99.90
2022-10-05T10:14:06.641Z,99.90
2022-10-05T10:16:44.160Z,94.00
2022-10-05T10:19:22.109Z,92.80
2022-10-05T10:22:06.296Z,99.90
2022-10-05T10:27:05.751Z,85.80
2022-10-05T10:29:56.227Z,78.90
2022-10-05T10:32:30.689Z,61.60
2022-10-05T10:35:05.427Z,60.10
2022-10-05T10:37:37.243Z,74.00
2022-10-05T10:40:27.055Z,85.10
2022-10-05T10:42:59.270Z,53.70
2022-10-05T10:45:46.114Z,47.40
2022-10-05T10:48:30.058Z,41.80
2022-10-05T10:51:14.033Z,43.60
2022-10-05T10:53:51.723Z,43.80
2022-10-05T10:56:32.703Z,19.40
2022-10-05T10:59:04.369Z,22.50
2022-10-05T11:01:42.195Z,27.60
2022-10-05T11:04:19.774Z,33.90
2022-10-05T11:06:57.401Z,26.80
2022-10-05T11:09:35.394Z,31.60
2022-10-05T11:12:25.810Z,28.80
2022-10-05T11:15:02.087Z,28.00
2022-10-05T11:17:40.023Z,26.50
2022-10-05T11:20:29.138Z,23.30
2022-10-05T11:23:18.569Z,21.20
2022-10-05T11:26:08.890Z,18.30
2022-10-05T11:29:00.501Z,26.20
2022-10-05T11:31:52.883Z,25.40
2022-10-05T11:34:43.758Z,26.60
2022-10-05T11:37:24.449Z,21.30
2022-10-05T11:40:14.779Z,27.70
2022-10-05T11:43:06.746Z,33.90
2022-10-05T11:45:50.780Z,30.50
2022-10-05T11:48:31.655Z,49.30
2022-10-05T11:51:09.183Z,36.70
2022-10-05T11:53:43.043Z,37.10
2022-10-05T11:56:23.110Z,44.50
2022-10-05T11:58:54.833Z,45.70
2022-10-05T12:01:41.180Z,36.70
2022-10-05T12:04:31.518Z,54.60
2022-10-05T12:07:35.474Z,53.40
2022-10-05T12:10:29.078Z,52.70
2022-10-05T12:13:13.520Z,42.20
2022-10-05T12:15:55.243Z,36.90
2022-10-05T12:18:30.082Z,47.70
2022-10-05T12:21:01.778Z,67.40
2022-10-05T12:23:37.442Z,66.90
2022-10-05T12:26:15.317Z,41.20
2022-10-05T12:28:53.356Z,58.30
2022-10-05T12:31:37.822Z,49.70
2022-10-05T12:34:18.229Z,42.80
2022-10-05T12:37:04.550Z,28.10
2022-10-05T12:39:42.121Z,43.50
2022-10-05T12:42:17.145Z,45.80
2022-10-05T12:45:05.400Z,15.20
2022-10-05T12:47:37.113Z,32.90
2022-10-05T12:50:11.632Z,14.50
2022-10-05T12:52:49.252Z,6.50
2022-10-05T12:55:21.957Z,1.00
2022-10-05T12:58:12.194Z,1.00
2022-10-05T13:00:49.969Z,1.00
2022-10-05T13:03:24.773Z,1.00
2022-10-05T13:06:15.294Z,1.00
2022-10-05T13:08:50.901Z,1.00
2022-10-05T13:11:31.805Z,1.00
2022-10-05T13:14:07.496Z,1.00
2022-10-05T13:16:54.724Z,1.00
2022-10-05T13:19:26.934Z,1.00
2022-10-05T13:22:25.109Z,1.00
2022-10-05T13:24:59.743Z,1.00
2022-10-05T13:27:40.930Z,1.00
2022-10-05T13:30:13.854Z,1.00
2022-10-05T13:32:48.711Z,3.60
2022-10-05T13:35:23.369Z,1.00
2022-10-05T13:37:59.889Z,1.00
2022-10-05T13:40:38.067Z,1.00
2022-10-05T13:43:20.756Z,1.00
2022-10-05T13:46:06.748Z,1.00
2022-10-05T13:48:41.678Z,1.00
2022-10-05T13:51:24.187Z,1.00
2022-10-05T13:54:15.435Z,1.00
2022-10-05T13:56:56.728Z,1.00
2022-10-05T13:59:48.291Z,2.60
2022-10-05T14:02:24.263Z,16.60
2022-10-05T14:05:05.733Z,26.20
2022-10-05T14:07:38.819Z,26.50
2022-10-05T14:10:13.800Z,37.30
2022-10-05T14:12:45.902Z,34.30
2022-10-05T14:15:28.547Z,58.00
2022-10-05T14:18:00.596Z,44.60
2022-10-05T14:20:34.424Z,72.50
2022-10-05T14:23:14.730Z,81.30
2022-10-05T14:25:54.177Z,84.90
2022-10-05T14:28:27.800Z,84.60
2022-10-05T14:31:06.154Z,99.90
2022-10-05T14:33:38.359Z,99.90
2022-10-05T14:36:32.392Z,99.90
2022-10-05T14:39:05.225Z,99.90
2022-10-05T14:41:42.255Z,99.90
2022-10-05T14:44:14.973Z,99.90
2022-10-05T14:46:54.645Z,99.90
2022-10-05T14:49:27.297Z,99.90
2022-10-05T14:51:59.012Z,99.90
2022-10-05T14:54:30.670Z,99.90
2022-10-05T14:57:06.713Z,99.90
2022-10-05T14:59:41.509Z,99.90
2022-10-05T15:02:32.123Z,99.90
2022-10-05T15:05:07.143Z,99.90
2022-10-05T15:07:43.911Z,99.90
2022-10-05T15:10:27.089Z,99.90
2022-10-05T15:13:11.436Z,99.90
2022-10-05T15:15:55.243Z,99.90
2022-10-05T15:18:40.837Z,99.90
2022-10-05T15:21:12.661Z,99.90
2022-10-05T15:23:49.061Z,99.90
2022-10-05T15:26:30.582Z,99.90
2022-10-05T15:29:14.542Z,99.90
2022-10-05T15:31:58.227Z,99.90
2022-10-05T15:34:38.743Z,99.90
2022-10-05T15:37:16.156Z,99.90
2022-10-05T15:39:50.711Z,99.90
2022-10-05T15:42:25.259Z,99.90
2022-10-05T15:44:56.958Z,99.90
2022-10-05T15:47:35.653Z,99.90
2022-10-05T15:50:17.927Z,99.90
2022-10-05T15:53:03.961Z,99.90
2022-10-05T15:55:55.806Z,99.90
2022-10-05T15:58:46.262Z,99.90
2022-10-05T16:01:33.426Z,99.90
2022-10-05T16:04:16.796Z,99.90
2022-10-05T16:07:09.807Z,99.90
2022-10-05T16:09:47.455Z,99.90
2022-10-05T16:12:33.562Z,99.90
2022-10-05T16:15:21.878Z,99.90
2022-10-05T16:18:05.768Z,99.90
2022-10-05T16:20:55.820Z,99.90
2022-10-05T16:23:42.803Z,99.90
2022-10-05T16:26:14.763Z,99.90
2022-10-05T16:28:50.475Z,99.90
2022-10-05T16:31:26.022Z,99.90
2022-10-05T16:34:07.082Z,99.90
2022-10-05T16:36:57.951Z,99.90
2022-10-05T16:39:48.689Z,99.90
2022-10-05T16:42:23.484Z,99.90
2022-10-05T16:44:55.515Z,99.90
2022-10-05T16:47:27.778Z,99.90
2022-10-05T16:49:59.537Z,99.90
2022-10-05T16:52:32.771Z,99.90
2022-10-05T16:55:07.251Z,99.90
2022-10-05T16:57:43.704Z,99.90
2022-10-05T17:00:19.282Z,99.90
2022-10-05T17:02:59.599Z,99.90
2022-10-05T17:05:40.254Z,99.90
2022-10-05T17:08:21.708Z,99.90
2022-10-05T17:11:14.658Z,99.90
2022-10-05T17:14:10.014Z,99.90
2022-10-05T17:16:52.668Z,99.90
2022-10-05T17:19:37.564Z,99.90
2022-10-05T17:22:18.309Z,99.90
2022-10-05T17:25:11.535Z,99.90
2022-10-05T17:27:55.643Z,99.90
2022-10-05T17:30:27.463Z,99.90
2022-10-05T17:33:04.532Z,99.90
2022-10-05T17:35:55.256Z,99.90
2022-10-05T17:38:35.992Z,99.90
2022-10-05T17:41:13.956Z,99.90
2022-10-05T17:44:04.585Z,99.90
2022-10-05T17:46:38.347Z,99.90
2022-10-05T17:49:31.910Z,99.90
2022-10-05T17:53:02.630Z,99.90
2022-10-05T17:55:34.508Z,99.90
2022-10-05T17:58:24.714Z,99.90
2022-10-05T18:00:56.699Z,99.90
2022-10-05T18:03:34.316Z,99.90
2022-10-05T18:06:28.668Z,99.90
2022-10-05T18:09:24.228Z,99.90
2022-10-05T18:12:08.115Z,99.90
2022-10-05T18:14:52.361Z,99.90
2022-10-05T18:17:40.007Z,99.90
2022-10-05T18:20:21.831Z,99.90
2022-10-05T18:23:13.557Z,99.90
2022-10-05T18:26:04.043Z,99.90
2022-10-05T18:28:35.823Z,99.90
2022-10-05T18:31:15.431Z,99.90
2022-10-05T18:34:02.506Z,99.90
2022-10-05T18:37:09.778Z,99.90
2022-10-05T18:39:50.978Z,99.90
2022-10-05T18:42:23.168Z,99.90
2022-10-05T18:45:13.869Z,99.90
2022-10-05T18:47:54.678Z,99.90
2022-10-05T18:50:45.041Z,99.90
2022-10-05T18:53:19.537Z,99.90
2022-10-05T18:56:14.812Z,99.90
2022-10-05T18:58:56.771Z,99.90
2022-10-05T19:01:47.601Z,99.90
2022-10-05T19:04:35.141Z,99.90
2022-10-05T19:07:16.319Z,99.90
2022-10-05T19:09:48.319Z,99.90
2022-10-05T19:12:41.866Z,99.90
2022-10-05T19:15:17.701Z,99.90
2022-10-05T19:17:59.014Z,99.90
2022-10-05T19:20:40.082Z,99.90
2022-10-05T19:23:28.502Z,99.90
2022-10-05T19:26:32.434Z,99.90
2022-10-05T19:29:16.284Z,99.90
2022-10-05T19:31:52.785Z,99.90
2022-10-05T19:34:37.206Z,99.90
2022-10-05T19:37:24.468Z,99.90
2022-10-05T19:39:58.872Z,99.90
2022-10-05T19:42:32.870Z,99.90
2022-10-05T19:45:22.217Z,99.90
2022-10-05T19:47:56.976Z,99.90
2022-10-05T19:50:28.761Z,99.90
2022-10-05T19:53:08.218Z,99.90
2022-10-05T19:55:44.057Z,99.90
2022-10-05T19:58:21.003Z,99.90
2022-10-05T20:00:54.277Z,99.90
2022-10-05T20:03:30.501Z,99.90
2022-10-05T20:06:07.314Z,99.90
2022-10-05T20:08:43.857Z,99.90
2022-10-05T20:11:19.160Z,99.90
2022-10-05T20:13:55.330Z,99.90
2022-10-05T20:16:52.175Z,99.90
2022-10-05T20:19:51.869Z,99.90
2022-10-05T20:22:23.607Z,99.90
2022-10-05T20:24:58.252Z,99.90
2022-10-05T20:27:42.392Z,99.90
2022-10-05T20:30:16.451Z,99.90
2022-10-05T20:32:58.351Z,99.90
2022-10-05T20:35:33.107Z,99.90
2022-10-05T20:38:05.000Z,99.90
2022-10-05T20:40:36.812Z,99.90
2022-10-05T20:43:08.507Z,99.90
2022-10-05T20:45:43.428Z,99.90
2022-10-05T20:48:16.677Z,99.90
2022-10-05T20:50:48.479Z,99.90
2022-10-05T20:53:20.183Z,99.90
2022-10-05T20:55:51.932Z,99.90
2022-10-05T20:58:26.438Z,99.90
2022-10-05T21:01:18.457Z,99.90
2022-10-05T21:03:55.746Z,99.90
2022-10-05T21:06:29.642Z,99.90
2022-10-05T21:09:01.504Z,99.90
2022-10-05T21:11:33.220Z,99.90
2022-10-05T21:14:07.150Z,99.90
2022-10-05T21:16:40.922Z,99.90
2022-10-05T21:19:13.519Z,99.90
2022-10-05T21:21:45.720Z,99.90
2022-10-05T21:24:17.540Z,99.90
2022-10-05T21:26:49.519Z,99.90
2022-10-05T21:29:21.351Z,99.90
2022-10-05T21:31:55.531Z,99.90
2022-10-05T21:34:28.586Z,99.90
2022-10-05T21:37:00.337Z,99.90
2022-10-05T21:39:33.641Z,99.90
2022-10-05T21:42:07.826Z,99.90
2022-10-05T21:44:41.763Z,99.90
2022-10-05T21:47:13.501Z,99.90
2022-10-05T21:49:47.311Z,99.90
2022-10-05T21:52:19.278Z,99.90
2022-10-05T21:54:53.542Z,99.90
2022-10-05T21:57:27.579Z,99.90
2022-10-05T22:00:01.452Z,99.90
2022-10-05T22:02:35.410Z,99.90
2022-10-05T22:05:09.522Z,99.90
2022-10-05T22:07:41.321Z,99.90
2022-10-05T22:10:13.152Z,99.90
2022-10-05T22:12:46.971Z,99.90
2022-10-05T22:15:21.437Z,99.90
2022-10-05T22:17:56.086Z,99.90
2022-10-05T22:20:27.792Z,99.90
2022-10-05T22:22:59.550Z,99.90
2022-10-05T22:25:33.915Z,99.90
2022-10-05T22:28:06.946Z,99.90
2022-10-05T22:30:41.304Z,99.90
2022-10-05T22:33:13.433Z,99.90
2022-10-05T22:35:45.400Z,99.90
2022-10-05T22:38:17.130Z,99.90
2022-10-05T22:40:51.213Z,99.90
2022-10-05T22:43:22.981Z,99.90
2022-10-05T22:45:55.033Z,99.90
2022-10-05T22:48:27.130Z,99.90
2022-10-05T22:50:59.102Z,99.90
2022-10-05T22:53:30.842Z,99.90
2022-10-05T22:56:10.092Z,99.90
2022-10-05T22:58:42.422Z,99.90
2022-10-05T23:01:17.538Z,99.90
2022-10-05T23:03:49.512Z,99.90
2022-10-05T23:06:21.255Z,99.90
2022-10-05T23:08:55.621Z,99.90
2022-10-05T23:11:28.189Z,99.90
2022-10-05T23:14:00.559Z,99.90
2022-10-05T23:16:32.352Z,99.90
2022-10-05T23:19:04.147Z,99.90
2022-10-05T23:21:35.845Z,99.90
2022-10-05T23:24:10.068Z,99.90
2022-10-05T23:26:41.777Z,99.90
2022-10-05T23:29:15.622Z,99.90
2022-10-05T23:31:47.372Z,99.90
2022-10-05T23:34:21.326Z,99.90
2022-10-05T23:36:53.100Z,99.90
2022-10-05T23:39:24.934Z,99.90
2022-10-05T23:41:56.662Z,99.90
2022-10-05T23:44:28.418Z,99.90
2022-10-05T23:47:00.129Z,99.90
2022-10-05T23:49:34.383Z,99.90
2022-10-05T23:52:06.104Z,99.90
2022-10-05T23:54:37.969Z,99.90
2022-10-05T23:57:09.776Z,99.90
2022-10-05T23:59:41.497Z,99.90
